CDT,Max TemperatureF,Mean TemperatureF,Min TemperatureF,Max Dew PointF,MeanDew PointF,Min DewpointF,Max Humidity, Mean Humidity, Min Humidity, Max Sea Level PressureIn, Mean Sea Level PressureIn, Min Sea Level PressureIn, Max VisibilityMiles, Mean VisibilityMiles, Min VisibilityMiles, Max Wind SpeedMPH, Mean Wind SpeedMPH, Max Gust SpeedMPH,PrecipitationIn, CloudCover, Events, WindDirDegrees
2011-10-1,82,61,40,35,32,29,65,36,17,30.23,30.17,30.10,10,10,10,15,7,21,0.00,0,,149
2011-10-2,85,65,45,38,36,32,65,35,18,30.17,30.08,30.00,10,10,10,17,8,24,0.00,0,,136
2011-10-3,96,72,48,44,40,34,61,37,12,30.07,30.00,29.93,10,10,10,16,7,24,0.00,0,,130
2011-10-4,93,79,64,43,39,32,40,26,12,30.03,29.96,29.91,10,10,9,25,15,36,0.00,0,,198
2011-10-5,83,70,56,52,43,38,60,39,22,29.96,29.89,29.79,10,10,8,30,15,45,0.00,0,,175
2011-10-6,84,72,60,58,53,44,72,52,39,29.81,29.68,29.58,10,9,4,39,23,55,0.00,1,,170
2011-10-7,82,69,55,63,58,52,94,73,50,29.91,29.79,29.62,10,9,2,31,16,45,0.55,5,Rain-Thunderstorm,207
2011-10-8,72,64,56,63,58,54,100,89,72,30.04,29.93,29.78,10,8,2,23,11,40,1.28,7,Rain-Thunderstorm,113
2011-10-9,56,52,47,54,49,46,94,90,83,30.10,30.07,30.03,10,10,7,8,4,,0.20,6,Rain,234
2011-10-10,70,55,40,53,48,40,97,77,51,30.07,29.99,29.89,10,10,9,15,6,20,0.00,1,,187
2011-10-11,66,57,48,56,52,47,100,89,68,29.89,29.80,29.72,10,6,0,10,3,17,0.00,4,Fog,171
2011-10-12,71,58,44,48,42,31,93,58,25,29.99,29.84,29.74,10,10,8,26,12,38,0.00,0,,308
2011-10-13,75,58,40,45,36,32,76,53,22,30.04,29.95,29.85,10,10,10,10,8,,0.00,0,,272
2011-10-14,68,54,39,39,36,32,86,56,27,30.11,30.04,29.93,10,10,5,12,6,,0.00,0,,7
2011-10-15,79,59,38,45,40,35,89,55,29,30.12,29.97,29.79,10,10,8,22,6,30,0.00,0,,227
2011-10-16,66,54,41,43,38,33,86,55,38,30.14,30.02,29.76,10,10,10,20,10,24,0.00,0,,358
2011-10-17,61,51,41,45,41,36,93,76,44,30.20,30.08,29.97,10,10,8,13,5,,0.22,4,Rain,18
2011-10-18,58,47,36,39,32,25,93,63,29,30.27,30.21,30.16,10,10,10,26,13,39,0.00,0,,320
2011-10-19,59,46,33,32,30,28,82,59,33,30.25,30.16,30.08,10,10,10,17,9,22,0.00,1,,351
2011-10-20,60,44,27,32,28,23,85,64,35,30.14,30.09,30.03,10,10,10,10,3,,0.00,0,,118
2011-10-21,76,55,33,40,35,30,89,56,22,30.14,30.09,30.04,10,10,10,9,3,,0.00,0,,247
2011-10-22,72,56,40,43,40,36,86,66,31,30.09,30.05,30.00,10,10,10,10,3,,0.00,1,,318
2011-10-23,78,59,39,43,37,31,89,61,19,30.08,30.03,29.99,10,10,10,20,6,18,0.00,0,,283
2011-10-24,86,62,38,42,37,33,86,51,18,30.09,29.94,29.69,10,10,10,24,6,36,0.00,0,,207
2011-10-25,69,58,47,43,39,34,61,48,38,30.07,29.83,29.62,10,10,10,24,14,30,0.00,0,,319
2011-10-26,50,44,37,39,36,33,89,75,61,30.24,30.18,30.07,10,10,9,23,14,29,0.02,7,Rain,346
2011-10-27,53,41,29,34,27,21,92,65,30,30.26,30.21,30.15,10,10,10,9,6,,0.00,0,,289
2011-10-28,61,44,26,28,24,19,85,56,21,30.32,30.26,30.21,10,10,10,13,5,,0.00,0,,286
2011-10-29,69,48,27,35,29,23,85,56,27,30.19,29.99,29.81,10,10,10,15,7,22,0.00,0,,249
2011-10-30,62,48,33,31,28,25,73,47,24,30.21,30.12,29.94,10,10,10,23,13,31,0.00,0,,305
2011-10-31,79,55,30,34,29,25,85,48,14,30.12,29.98,29.83,10,10,10,18,7,28,0.00,0,,224